sensor_id;sensor_type;location;lat;lon;timestamp;temperature;humidity
13652;DHT22;6899;51.546;6.912;2023-02-23T00:01:10;8.50;99.90
13652;DHT22;6899;51.546;6.912;2023-02-23T00:03:39;8.50;99.90
13652;DHT22;6899;51.546;6.912;2023-02-23T00:06:06;8.60;99.90
13652;DHT22;6899;51.546;6.912;2023-02-23T00:08:33;8.50;99.90
13652;DHT22;6899;51.546;6.912;2023-02-23T00:11:02;8.50;99.90
13652;DHT22;6899;51.546;6.912;2023-02-23T00:13:30;8.50;99.90
13652;DHT22;6899;51.546;6.912;2023-02-23T00:15:57;8.40;99.90
13652;DHT22;6899;51.546;6.912;2023-02-23T00:18:24;8.50;99.90
13652;DHT22;6899;51.546;6.912;2023-02-23T00:20:56;8.40;99.90
13652;DHT22;6899;51.546;6.912;2023-02-23T00:23:23;8.40;99.90
13652;DHT22;6899;51.546;6.912;2023-02-23T00:25:52;8.40;99.90
13652;DHT22;6899;51.546;6.912;2023-02-23T00:28:19;8.40;99.90
13652;DHT22;6899;51.546;6.912;2023-02-23T00:30:45;8.40;99.90
13652;DHT22;6899;51.546;6.912;2023-02-23T00:33:13;8.40;99.90
13652;DHT22;6899;51.546;6.912;2023-02-23T00:35:40;8.40;99.90
13652;DHT22;6899;51.546;6.912;2023-02-23T00:38:08;8.50;99.90
13652;DHT22;6899;51.546;6.912;2023-02-23T00:40:38;8.40;99.90
13652;DHT22;6899;51.546;6.912;2023-02-23T00:43:07;8.40;99.90
13652;DHT22;6899;51.546;6.912;2023-02-23T00:45:34;8.50;99.90
13652;DHT22;6899;51.546;6.912;2023-02-23T00:48:02;8.40;99.90
13652;DHT22;6899;51.546;6.912;2023-02-23T00:50:35;8.40;99.90
13652;DHT22;6899;51.546;6.912;2023-02-23T00:53:03;8.40;99.90
13652;DHT22;6899;51.546;6.912;2023-02-23T00:55:31;8.40;99.90
13652;DHT22;6899;51.546;6.912;2023-02-23T00:57:58;8.40;99.90
13652;DHT22;6899;51.546;6.912;2023-02-23T01:00:25;8.40;99.90
13652;DHT22;6899;51.546;6.912;2023-02-23T01:02:52;8.30;99.90
13652;DHT22;6899;51.546;6.912;2023-02-23T01:05:19;8.30;99.90
13652;DHT22;6899;51.546;6.912;2023-02-23T01:07:49;8.20;99.90
13652;DHT22;6899;51.546;6.912;2023-02-23T01:10:16;8.20;99.90
13652;DHT22;6899;51.546;6.912;2023-02-23T01:12:49;8.30;99.90
13652;DHT22;6899;51.546;6.912;2023-02-23T01:15:17;8.30;99.90
13652;DHT22;6899;51.546;6.912;2023-02-23T01:17:45;8.20;99.90
13652;DHT22;6899;51.546;6.912;2023-02-23T01:20:14;8.20;99.90
13652;DHT22;6899;51.546;6.912;2023-02-23T01:22:44;8.20;99.90
13652;DHT22;6899;51.546;6.912;2023-02-23T01:25:11;8.30;99.90
13652;DHT22;6899;51.546;6.912;2023-02-23T01:27:38;8.20;99.90
13652;DHT22;6899;51.546;6.912;2023-02-23T01:30:08;8.20;99.90
13652;DHT22;6899;51.546;6.912;2023-02-23T01:32:36;8.20;99.90
13652;DHT22;6899;51.546;6.912;2023-02-23T01:35:04;8.20;99.90
13652;DHT22;6899;51.546;6.912;2023-02-23T01:37:33;8.20;99.90
13652;DHT22;6899;51.546;6.912;2023-02-23T01:40:01;8.20;99.90
13652;DHT22;6899;51.546;6.912;2023-02-23T01:42:36;8.20;99.90
13652;DHT22;6899;51.546;6.912;2023-02-23T01:45:27;8.10;99.90
13652;DHT22;6899;51.546;6.912;2023-02-23T01:47:56;8.10;99.90
13652;DHT22;6899;51.546;6.912;2023-02-23T01:50:28;8.10;99.90
13652;DHT22;6899;51.546;6.912;2023-02-23T01:52:55;8.10;99.90
13652;DHT22;6899;51.546;6.912;2023-02-23T01:55:25;8.10;99.90
13652;DHT22;6899;51.546;6.912;2023-02-23T01:57:59;8.10;99.90
13652;DHT22;6899;51.546;6.912;2023-02-23T02:00:29;8.10;99.90
13652;DHT22;6899;51.546;6.912;2023-02-23T02:03:03;8.10;99.90
13652;DHT22;6899;51.546;6.912;2023-02-23T02:05:34;8.20;99.90
13652;DHT22;6899;51.546;6.912;2023-02-23T02:08:02;8.20;99.90
13652;DHT22;6899;51.546;6.912;2023-02-23T02:10:31;8.20;99.90
13652;DHT22;6899;51.546;6.912;2023-02-23T02:13:16;8.20;99.90
13652;DHT22;6899;51.546;6.912;2023-02-23T02:16:18;8.20;99.90
13652;DHT22;6899;51.546;6.912;2023-02-23T02:19:01;8.20;99.90
13652;DHT22;6899;51.546;6.912;2023-02-23T02:21:59;8.30;99.90
13652;DHT22;6899;51.546;6.912;2023-02-23T02:28:47;8.30;99.90
13652;DHT22;6899;51.546;6.912;2023-02-23T02:37:44;8.20;99.90
13652;DHT22;6899;51.546;6.912;2023-02-23T02:40:18;8.20;99.90
13652;DHT22;6899;51.546;6.912;2023-02-23T02:42:53;8.20;99.90
13652;DHT22;6899;51.546;6.912;2023-02-23T02:45:29;8.20;99.90
13652;DHT22;6899;51.546;6.912;2023-02-23T02:48:05;8.20;99.90
13652;DHT22;6899;51.546;6.912;2023-02-23T02:50:43;8.20;99.90
13652;DHT22;6899;51.546;6.912;2023-02-23T02:53:17;8.20;99.90
13652;DHT22;6899;51.546;6.912;2023-02-23T02:55:47;8.20;99.90
13652;DHT22;6899;51.546;6.912;2023-02-23T02:58:16;8.20;99.90
13652;DHT22;6899;51.546;6.912;2023-02-23T03:00:46;8.20;99.90
13652;DHT22;6899;51.546;6.912;2023-02-23T03:03:33;8.10;99.90
13652;DHT22;6899;51.546;6.912;2023-02-23T03:06:20;8.10;99.90
13652;DHT22;6899;51.546;6.912;2023-02-23T03:09:15;8.10;99.90
13652;DHT22;6899;51.546;6.912;2023-02-23T03:12:10;8.10;99.90
13652;DHT22;6899;51.546;6.912;2023-02-23T03:15:05;8.10;99.90
13652;DHT22;6899;51.546;6.912;2023-02-23T03:17:59;8.10;99.90
13652;DHT22;6899;51.546;6.912;2023-02-23T03:20:52;8.20;99.90
13652;DHT22;6899;51.546;6.912;2023-02-23T03:23:41;8.10;99.90
13652;DHT22;6899;51.546;6.912;2023-02-23T03:26:33;8.10;99.90
13652;DHT22;6899;51.546;6.912;2023-02-23T03:29:27;8.10;99.90
13652;DHT22;6899;51.546;6.912;2023-02-23T03:32:16;8.10;99.90
13652;DHT22;6899;51.546;6.912;2023-02-23T03:35:07;8.10;99.90
13652;DHT22;6899;51.546;6.912;2023-02-23T03:37:55;8.10;99.90
13652;DHT22;6899;51.546;6.912;2023-02-23T03:40:41;8.10;99.90
13652;DHT22;6899;51.546;6.912;2023-02-23T03:43:33;8.10;99.90
13652;DHT22;6899;51.546;6.912;2023-02-23T03:46:19;8.10;99.90
13652;DHT22;6899;51.546;6.912;2023-02-23T03:49:07;8.10;99.90
13652;DHT22;6899;51.546;6.912;2023-02-23T03:51:56;8.10;99.90
13652;DHT22;6899;51.546;6.912;2023-02-23T03:54:46;8.10;99.90
13652;DHT22;6899;51.546;6.912;2023-02-23T03:57:33;8.00;99.90
13652;DHT22;6899;51.546;6.912;2023-02-23T04:00:24;8.00;99.90
13652;DHT22;6899;51.546;6.912;2023-02-23T04:03:11;8.10;99.90
13652;DHT22;6899;51.546;6.912;2023-02-23T04:06:00;8.10;99.90
13652;DHT22;6899;51.546;6.912;2023-02-23T04:08:45;8.00;99.90
13652;DHT22;6899;51.546;6.912;2023-02-23T04:11:39;8.00;99.90
13652;DHT22;6899;51.546;6.912;2023-02-23T04:14:30;8.00;99.90
13652;DHT22;6899;51.546;6.912;2023-02-23T04:17:02;7.90;99.90
13652;DHT22;6899;51.546;6.912;2023-02-23T04:19:32;8.00;99.90
13652;DHT22;6899;51.546;6.912;2023-02-23T04:21:59;8.00;99.90
13652;DHT22;6899;51.546;6.912;2023-02-23T04:24:26;7.90;99.90
13652;DHT22;6899;51.546;6.912;2023-02-23T04:26:53;7.90;99.90
13652;DHT22;6899;51.546;6.912;2023-02-23T04:29:20;7.90;99.90
13652;DHT22;6899;51.546;6.912;2023-02-23T04:31:47;7.90;99.90
13652;DHT22;6899;51.546;6.912;2023-02-23T04:34:15;7.90;99.90
13652;DHT22;6899;51.546;6.912;2023-02-23T04:36:42;7.90;99.90
13652;DHT22;6899;51.546;6.912;2023-02-23T04:39:09;7.90;99.90
13652;DHT22;6899;51.546;6.912;2023-02-23T04:41:35;7.90;99.90
13652;DHT22;6899;51.546;6.912;2023-02-23T04:44:02;7.90;99.90
13652;DHT22;6899;51.546;6.912;2023-02-23T04:46:29;7.90;99.90
13652;DHT22;6899;51.546;6.912;2023-02-23T04:48:56;7.90;99.90
13652;DHT22;6899;51.546;6.912;2023-02-23T04:51:25;7.90;99.90
13652;DHT22;6899;51.546;6.912;2023-02-23T04:53:55;7.80;99.90
13652;DHT22;6899;51.546;6.912;2023-02-23T04:56:22;7.80;99.90
13652;DHT22;6899;51.546;6.912;2023-02-23T04:58:49;7.80;99.90
13652;DHT22;6899;51.546;6.912;2023-02-23T05:01:16;7.80;99.90
13652;DHT22;6899;51.546;6.912;2023-02-23T05:03:43;7.80;99.90
13652;DHT22;6899;51.546;6.912;2023-02-23T05:06:10;7.80;99.90
13652;DHT22;6899;51.546;6.912;2023-02-23T05:08:39;7.80;99.90
13652;DHT22;6899;51.546;6.912;2023-02-23T05:11:06;7.70;99.90
13652;DHT22;6899;51.546;6.912;2023-02-23T05:13:33;7.80;99.90
13652;DHT22;6899;51.546;6.912;2023-02-23T05:16:00;7.70;99.90
13652;DHT22;6899;51.546;6.912;2023-02-23T05:18:27;7.70;99.90
13652;DHT22;6899;51.546;6.912;2023-02-23T05:21:01;7.70;99.90
13652;DHT22;6899;51.546;6.912;2023-02-23T05:23:28;7.70;99.90
13652;DHT22;6899;51.546;6.912;2023-02-23T05:26:00;7.70;99.90
13652;DHT22;6899;51.546;6.912;2023-02-23T05:28:30;7.70;99.90
13652;DHT22;6899;51.546;6.912;2023-02-23T05:31:01;7.70;99.90
13652;DHT22;6899;51.546;6.912;2023-02-23T05:33:28;7.70;99.90
13652;DHT22;6899;51.546;6.912;2023-02-23T05:35:56;7.60;99.90
13652;DHT22;6899;51.546;6.912;2023-02-23T05:38:23;7.70;99.90
13652;DHT22;6899;51.546;6.912;2023-02-23T05:40:50;7.70;99.90
13652;DHT22;6899;51.546;6.912;2023-02-23T05:43:18;7.70;99.90
13652;DHT22;6899;51.546;6.912;2023-02-23T05:45:45;7.70;99.90
13652;DHT22;6899;51.546;6.912;2023-02-23T05:48:13;7.70;99.90
13652;DHT22;6899;51.546;6.912;2023-02-23T05:50:39;7.70;99.90
13652;DHT22;6899;51.546;6.912;2023-02-23T05:53:06;7.70;99.90
13652;DHT22;6899;51.546;6.912;2023-02-23T05:55:35;7.70;99.90
13652;DHT22;6899;51.546;6.912;2023-02-23T05:58:02;7.70;99.90
13652;DHT22;6899;51.546;6.912;2023-02-23T06:00:30;7.70;99.90
13652;DHT22;6899;51.546;6.912;2023-02-23T06:02:57;7.70;99.90
13652;DHT22;6899;51.546;6.912;2023-02-23T06:05:24;7.70;99.90
13652;DHT22;6899;51.546;6.912;2023-02-23T06:07:51;7.70;99.90
13652;DHT22;6899;51.546;6.912;2023-02-23T06:10:18;7.70;99.90
13652;DHT22;6899;51.546;6.912;2023-02-23T06:12:48;7.70;99.90
13652;DHT22;6899;51.546;6.912;2023-02-23T06:15:15;7.70;99.90
13652;DHT22;6899;51.546;6.912;2023-02-23T06:17:44;7.70;99.90
13652;DHT22;6899;51.546;6.912;2023-02-23T06:20:11;7.70;99.90
13652;DHT22;6899;51.546;6.912;2023-02-23T06:22:39;7.80;99.90
13652;DHT22;6899;51.546;6.912;2023-02-23T06:25:07;7.80;99.90
13652;DHT22;6899;51.546;6.912;2023-02-23T06:27:37;7.80;99.90
13652;DHT22;6899;51.546;6.912;2023-02-23T06:30:05;7.80;99.90
13652;DHT22;6899;51.546;6.912;2023-02-23T06:32:32;7.90;99.90
13652;DHT22;6899;51.546;6.912;2023-02-23T06:35:00;7.90;99.90
13652;DHT22;6899;51.546;6.912;2023-02-23T06:37:28;7.90;99.90
13652;DHT22;6899;51.546;6.912;2023-02-23T06:39:55;7.90;99.90
13652;DHT22;6899;51.546;6.912;2023-02-23T06:42:21;7.90;99.90
13652;DHT22;6899;51.546;6.912;2023-02-23T06:44:49;7.80;99.90
13652;DHT22;6899;51.546;6.912;2023-02-23T06:47:16;7.80;99.90
13652;DHT22;6899;51.546;6.912;2023-02-23T06:49:43;7.80;99.90
13652;DHT22;6899;51.546;6.912;2023-02-23T06:52:11;7.80;99.90
13652;DHT22;6899;51.546;6.912;2023-02-23T06:54:38;7.80;99.90
13652;DHT22;6899;51.546;6.912;2023-02-23T06:57:06;7.80;99.90
13652;DHT22;6899;51.546;6.912;2023-02-23T06:59:33;7.70;99.90
13652;DHT22;6899;51.546;6.912;2023-02-23T07:02:01;7.80;99.90
13652;DHT22;6899;51.546;6.912;2023-02-23T07:04:29;7.70;99.90
13652;DHT22;6899;51.546;6.912;2023-02-23T07:06:56;7.80;99.90
13652;DHT22;6899;51.546;6.912;2023-02-23T07:09:24;7.80;99.90
13652;DHT22;6899;51.546;6.912;2023-02-23T07:11:51;7.70;99.90
13652;DHT22;6899;51.546;6.912;2023-02-23T07:14:18;7.70;99.90
13652;DHT22;6899;51.546;6.912;2023-02-23T07:16:45;7.70;99.90
13652;DHT22;6899;51.546;6.912;2023-02-23T07:19:12;7.70;99.90
13652;DHT22;6899;51.546;6.912;2023-02-23T07:21:38;7.60;99.90
13652;DHT22;6899;51.546;6.912;2023-02-23T07:24:06;7.70;99.90
13652;DHT22;6899;51.546;6.912;2023-02-23T07:26:34;7.70;99.90
13652;DHT22;6899;51.546;6.912;2023-02-23T07:29:01;7.70;99.90
13652;DHT22;6899;51.546;6.912;2023-02-23T07:31:28;7.70;99.90
13652;DHT22;6899;51.546;6.912;2023-02-23T07:33:55;7.70;99.90
13652;DHT22;6899;51.546;6.912;2023-02-23T07:36:22;7.60;99.90
13652;DHT22;6899;51.546;6.912;2023-02-23T07:38:50;7.60;99.90
13652;DHT22;6899;51.546;6.912;2023-02-23T07:41:17;7.50;99.90
13652;DHT22;6899;51.546;6.912;2023-02-23T07:43:45;7.60;99.90
13652;DHT22;6899;51.546;6.912;2023-02-23T07:46:12;7.60;99.90
13652;DHT22;6899;51.546;6.912;2023-02-23T07:48:39;7.60;99.90
13652;DHT22;6899;51.546;6.912;2023-02-23T07:51:08;7.60;99.90
13652;DHT22;6899;51.546;6.912;2023-02-23T07:53:36;7.60;99.90
13652;DHT22;6899;51.546;6.912;2023-02-23T07:56:03;7.60;99.90
13652;DHT22;6899;51.546;6.912;2023-02-23T07:58:30;7.60;99.90
13652;DHT22;6899;51.546;6.912;2023-02-23T08:00:59;7.70;99.90
13652;DHT22;6899;51.546;6.912;2023-02-23T08:03:26;7.80;99.90
13652;DHT22;6899;51.546;6.912;2023-02-23T08:05:53;7.90;99.90
13652;DHT22;6899;51.546;6.912;2023-02-23T08:08:20;7.90;99.90
13652;DHT22;6899;51.546;6.912;2023-02-23T08:10:47;7.90;99.90
13652;DHT22;6899;51.546;6.912;2023-02-23T08:13:14;8.00;99.90
13652;DHT22;6899;51.546;6.912;2023-02-23T08:15:41;8.10;99.90
13652;DHT22;6899;51.546;6.912;2023-02-23T08:18:09;8.10;99.90
13652;DHT22;6899;51.546;6.912;2023-02-23T08:20:36;8.10;99.90
13652;DHT22;6899;51.546;6.912;2023-02-23T08:23:03;8.00;99.90
13652;DHT22;6899;51.546;6.912;2023-02-23T08:25:30;8.00;99.90
13652;DHT22;6899;51.546;6.912;2023-02-23T08:27:57;8.00;99.90
13652;DHT22;6899;51.546;6.912;2023-02-23T08:30:29;8.00;99.90
13652;DHT22;6899;51.546;6.912;2023-02-23T08:32:56;8.00;99.90
13652;DHT22;6899;51.546;6.912;2023-02-23T08:35:25;8.00;99.90
13652;DHT22;6899;51.546;6.912;2023-02-23T08:37:51;8.00;99.90
13652;DHT22;6899;51.546;6.912;2023-02-23T08:40:18;8.00;99.90
13652;DHT22;6899;51.546;6.912;2023-02-23T08:42:46;7.90;99.90
13652;DHT22;6899;51.546;6.912;2023-02-23T08:45:16;7.90;99.90
13652;DHT22;6899;51.546;6.912;2023-02-23T08:47:43;8.00;99.90
13652;DHT22;6899;51.546;6.912;2023-02-23T08:50:12;8.00;99.90
13652;DHT22;6899;51.546;6.912;2023-02-23T08:52:40;8.00;99.90
13652;DHT22;6899;51.546;6.912;2023-02-23T08:55:08;8.10;99.90
13652;DHT22;6899;51.546;6.912;2023-02-23T08:57:36;8.10;99.90
13652;DHT22;6899;51.546;6.912;2023-02-23T09:00:07;8.10;99.90
13652;DHT22;6899;51.546;6.912;2023-02-23T09:02:39;8.20;99.90
13652;DHT22;6899;51.546;6.912;2023-02-23T09:05:07;8.20;99.90
13652;DHT22;6899;51.546;6.912;2023-02-23T09:07:34;8.40;99.90
13652;DHT22;6899;51.546;6.912;2023-02-23T09:10:04;8.40;99.90
13652;DHT22;6899;51.546;6.912;2023-02-23T09:12:31;8.50;99.90
13652;DHT22;6899;51.546;6.912;2023-02-23T09:14:58;8.60;99.90
13652;DHT22;6899;51.546;6.912;2023-02-23T09:17:25;8.60;99.90
13652;DHT22;6899;51.546;6.912;2023-02-23T09:19:52;8.60;99.90
13652;DHT22;6899;51.546;6.912;2023-02-23T09:22:19;8.80;99.90
13652;DHT22;6899;51.546;6.912;2023-02-23T09:24:45;8.90;99.90
13652;DHT22;6899;51.546;6.912;2023-02-23T09:27:14;9.10;99.90
13652;DHT22;6899;51.546;6.912;2023-02-23T09:29:41;9.10;99.90
13652;DHT22;6899;51.546;6.912;2023-02-23T09:32:09;9.20;99.90
13652;DHT22;6899;51.546;6.912;2023-02-23T09:34:36;9.00;99.90
13652;DHT22;6899;51.546;6.912;2023-02-23T09:37:03;9.20;99.90
13652;DHT22;6899;51.546;6.912;2023-02-23T09:39:30;9.30;99.90
13652;DHT22;6899;51.546;6.912;2023-02-23T09:42:16;9.50;99.90
13652;DHT22;6899;51.546;6.912;2023-02-23T09:44:56;9.70;99.90
13652;DHT22;6899;51.546;6.912;2023-02-23T09:47:32;10.00;99.90
13652;DHT22;6899;51.546;6.912;2023-02-23T09:50:12;9.90;99.90
13652;DHT22;6899;51.546;6.912;2023-02-23T09:52:44;10.00;99.90
13652;DHT22;6899;51.546;6.912;2023-02-23T09:55:13;9.80;99.90
13652;DHT22;6899;51.546;6.912;2023-02-23T09:57:44;9.70;99.90
13652;DHT22;6899;51.546;6.912;2023-02-23T10:00:16;9.60;99.90
13652;DHT22;6899;51.546;6.912;2023-02-23T10:02:58;9.50;99.90
13652;DHT22;6899;51.546;6.912;2023-02-23T10:05:28;9.50;99.90
13652;DHT22;6899;51.546;6.912;2023-02-23T10:08:02;9.30;99.90
13652;DHT22;6899;51.546;6.912;2023-02-23T10:10:38;9.10;99.90
13652;DHT22;6899;51.546;6.912;2023-02-23T10:13:14;9.00;99.90
13652;DHT22;6899;51.546;6.912;2023-02-23T10:15:48;9.00;99.90
13652;DHT22;6899;51.546;6.912;2023-02-23T10:18:23;9.00;99.90
13652;DHT22;6899;51.546;6.912;2023-02-23T10:20:59;9.20;99.90
13652;DHT22;6899;51.546;6.912;2023-02-23T10:23:31;9.30;99.90
13652;DHT22;6899;51.546;6.912;2023-02-23T10:26:01;9.30;99.90
13652;DHT22;6899;51.546;6.912;2023-02-23T10:28:34;9.20;99.90
13652;DHT22;6899;51.546;6.912;2023-02-23T10:31:01;9.20;99.90
13652;DHT22;6899;51.546;6.912;2023-02-23T10:33:36;9.30;99.90
13652;DHT22;6899;51.546;6.912;2023-02-23T10:36:11;9.40;99.90
13652;DHT22;6899;51.546;6.912;2023-02-23T10:38:39;9.60;99.90
13652;DHT22;6899;51.546;6.912;2023-02-23T10:41:06;10.00;99.90
13652;DHT22;6899;51.546;6.912;2023-02-23T10:43:36;10.10;99.90
13652;DHT22;6899;51.546;6.912;2023-02-23T10:46:04;10.20;99.90
13652;DHT22;6899;51.546;6.912;2023-02-23T10:48:35;9.90;99.90
13652;DHT22;6899;51.546;6.912;2023-02-23T10:51:06;9.80;99.90
13652;DHT22;6899;51.546;6.912;2023-02-23T10:53:39;9.60;99.90
13652;DHT22;6899;51.546;6.912;2023-02-23T10:56:09;9.40;99.90
13652;DHT22;6899;51.546;6.912;2023-02-23T10:58:44;9.30;99.90
13652;DHT22;6899;51.546;6.912;2023-02-23T11:01:13;9.00;99.90
13652;DHT22;6899;51.546;6.912;2023-02-23T11:03:43;8.60;99.90
13652;DHT22;6899;51.546;6.912;2023-02-23T11:06:35;8.50;99.90
13652;DHT22;6899;51.546;6.912;2023-02-23T11:09:20;8.30;99.90
13652;DHT22;6899;51.546;6.912;2023-02-23T11:11:55;8.40;99.90
13652;DHT22;6899;51.546;6.912;2023-02-23T11:14:25;8.50;99.90
13652;DHT22;6899;51.546;6.912;2023-02-23T11:16:54;8.70;99.90
13652;DHT22;6899;51.546;6.912;2023-02-23T11:19:24;8.90;99.90
13652;DHT22;6899;51.546;6.912;2023-02-23T11:21:52;9.20;99.90
13652;DHT22;6899;51.546;6.912;2023-02-23T11:24:23;9.40;99.90
13652;DHT22;6899;51.546;6.912;2023-02-23T11:26:53;9.70;99.90
13652;DHT22;6899;51.546;6.912;2023-02-23T11:29:28;9.90;99.90
13652;DHT22;6899;51.546;6.912;2023-02-23T11:31:58;9.90;99.90
13652;DHT22;6899;51.546;6.912;2023-02-23T11:34:31;9.60;99.90
13652;DHT22;6899;51.546;6.912;2023-02-23T11:37:03;9.60;99.90
13652;DHT22;6899;51.546;6.912;2023-02-23T11:39:30;9.40;99.90
13652;DHT22;6899;51.546;6.912;2023-02-23T11:42:14;9.20;99.90
13652;DHT22;6899;51.546;6.912;2023-02-23T11:44:49;9.10;99.90
13652;DHT22;6899;51.546;6.912;2023-02-23T11:47:18;9.00;99.90
13652;DHT22;6899;51.546;6.912;2023-02-23T11:49:47;8.90;99.90
13652;DHT22;6899;51.546;6.912;2023-02-23T11:52:18;8.90;99.90
13652;DHT22;6899;51.546;6.912;2023-02-23T11:54:51;8.90;99.90
13652;DHT22;6899;51.546;6.912;2023-02-23T11:57:20;8.70;99.90
13652;DHT22;6899;51.546;6.912;2023-02-23T11:59:50;8.60;99.90
13652;DHT22;6899;51.546;6.912;2023-02-23T12:02:22;8.60;99.90
13652;DHT22;6899;51.546;6.912;2023-02-23T12:04:52;8.60;99.90
13652;DHT22;6899;51.546;6.912;2023-02-23T12:07:33;8.60;99.90
13652;DHT22;6899;51.546;6.912;2023-02-23T12:10:15;8.60;99.90
13652;DHT22;6899;51.546;6.912;2023-02-23T12:12:48;8.50;99.90
13652;DHT22;6899;51.546;6.912;2023-02-23T12:15:25;8.70;99.90
13652;DHT22;6899;51.546;6.912;2023-02-23T12:17:57;8.90;99.90
13652;DHT22;6899;51.546;6.912;2023-02-23T12:20:29;9.20;99.90
13652;DHT22;6899;51.546;6.912;2023-02-23T12:23:00;9.40;99.90
13652;DHT22;6899;51.546;6.912;2023-02-23T12:25:33;9.70;99.90
13652;DHT22;6899;51.546;6.912;2023-02-23T12:28:05;10.10;99.90
13652;DHT22;6899;51.546;6.912;2023-02-23T12:30:42;10.20;99.90
13652;DHT22;6899;51.546;6.912;2023-02-23T12:33:14;10.20;99.90
13652;DHT22;6899;51.546;6.912;2023-02-23T12:35:48;10.10;99.90
13652;DHT22;6899;51.546;6.912;2023-02-23T12:38:22;9.80;99.90
13652;DHT22;6899;51.546;6.912;2023-02-23T12:40:57;9.70;99.90
13652;DHT22;6899;51.546;6.912;2023-02-23T12:43:31;9.20;99.90
13652;DHT22;6899;51.546;6.912;2023-02-23T12:46:08;8.90;99.90
13652;DHT22;6899;51.546;6.912;2023-02-23T12:48:46;8.70;99.90
13652;DHT22;6899;51.546;6.912;2023-02-23T12:51:23;8.50;99.90
13652;DHT22;6899;51.546;6.912;2023-02-23T12:53:51;8.60;99.90
13652;DHT22;6899;51.546;6.912;2023-02-23T12:56:29;8.70;99.90
13652;DHT22;6899;51.546;6.912;2023-02-23T12:59:06;8.80;99.90
13652;DHT22;6899;51.546;6.912;2023-02-23T13:01:44;8.90;99.90
13652;DHT22;6899;51.546;6.912;2023-02-23T13:07:38;9.10;99.90
13652;DHT22;6899;51.546;6.912;2023-02-23T13:10:19;9.00;99.90
13652;DHT22;6899;51.546;6.912;2023-02-23T13:12:51;9.20;99.90
13652;DHT22;6899;51.546;6.912;2023-02-23T13:15:26;9.30;99.90
13652;DHT22;6899;51.546;6.912;2023-02-23T13:18:00;9.00;99.90
13652;DHT22;6899;51.546;6.912;2023-02-23T13:20:34;8.80;99.90
13652;DHT22;6899;51.546;6.912;2023-02-23T13:23:13;8.90;99.90
13652;DHT22;6899;51.546;6.912;2023-02-23T13:25:48;8.90;99.90
13652;DHT22;6899;51.546;6.912;2023-02-23T13:28:31;8.90;99.90
13652;DHT22;6899;51.546;6.912;2023-02-23T13:30:59;8.80;99.90
13652;DHT22;6899;51.546;6.912;2023-02-23T13:33:28;8.80;99.90
13652;DHT22;6899;51.546;6.912;2023-02-23T13:36:00;8.70;99.90
13652;DHT22;6899;51.546;6.912;2023-02-23T13:38:32;8.60;99.90
13652;DHT22;6899;51.546;6.912;2023-02-23T13:41:08;8.60;99.90
13652;DHT22;6899;51.546;6.912;2023-02-23T13:43:47;8.50;99.90
13652;DHT22;6899;51.546;6.912;2023-02-23T13:46:24;8.50;99.90
13652;DHT22;6899;51.546;6.912;2023-02-23T13:48:58;8.40;99.90
13652;DHT22;6899;51.546;6.912;2023-02-23T13:51:34;8.40;99.90
13652;DHT22;6899;51.546;6.912;2023-02-23T13:54:20;8.40;99.90
13652;DHT22;6899;51.546;6.912;2023-02-23T13:56:51;8.50;99.90
13652;DHT22;6899;51.546;6.912;2023-02-23T13:59:21;8.50;99.90
13652;DHT22;6899;51.546;6.912;2023-02-23T14:01:50;8.60;99.90
13652;DHT22;6899;51.546;6.912;2023-02-23T14:04:23;8.80;99.90
13652;DHT22;6899;51.546;6.912;2023-02-23T14:06:53;8.80;99.90
13652;DHT22;6899;51.546;6.912;2023-02-23T14:09:25;8.90;99.90
13652;DHT22;6899;51.546;6.912;2023-02-23T14:12:02;8.90;99.90
13652;DHT22;6899;51.546;6.912;2023-02-23T14:14:40;9.00;99.90
13652;DHT22;6899;51.546;6.912;2023-02-23T14:17:36;9.10;99.90
13652;DHT22;6899;51.546;6.912;2023-02-23T14:20:19;9.10;99.90
13652;DHT22;6899;51.546;6.912;2023-02-23T14:23:15;9.00;99.90
13652;DHT22;6899;51.546;6.912;2023-02-23T14:25:47;9.00;99.90
13652;DHT22;6899;51.546;6.912;2023-02-23T14:28:29;9.10;99.90
13652;DHT22;6899;51.546;6.912;2023-02-23T14:31:00;9.10;99.90
13652;DHT22;6899;51.546;6.912;2023-02-23T14:33:36;9.10;99.90
13652;DHT22;6899;51.546;6.912;2023-02-23T14:36:33;9.10;99.90
13652;DHT22;6899;51.546;6.912;2023-02-23T14:39:03;9.10;99.90
13652;DHT22;6899;51.546;6.912;2023-02-23T14:41:40;9.10;99.90
13652;DHT22;6899;51.546;6.912;2023-02-23T14:44:13;9.10;99.90
13652;DHT22;6899;51.546;6.912;2023-02-23T14:46:48;9.10;99.90
13652;DHT22;6899;51.546;6.912;2023-02-23T14:49:18;9.00;99.90
13652;DHT22;6899;51.546;6.912;2023-02-23T14:51:48;9.10;99.90
13652;DHT22;6899;51.546;6.912;2023-02-23T14:54:27;9.30;99.90
13652;DHT22;6899;51.546;6.912;2023-02-23T14:56:57;9.50;99.90
13652;DHT22;6899;51.546;6.912;2023-02-23T14:59:25;9.60;99.90
13652;DHT22;6899;51.546;6.912;2023-02-23T15:01:54;9.80;99.90
13652;DHT22;6899;51.546;6.912;2023-02-23T15:04:22;10.10;99.90
13652;DHT22;6899;51.546;6.912;2023-02-23T15:06:54;10.30;99.90
13652;DHT22;6899;51.546;6.912;2023-02-23T15:09:32;10.30;99.90
13652;DHT22;6899;51.546;6.912;2023-02-23T15:12:11;10.20;99.90
13652;DHT22;6899;51.546;6.912;2023-02-23T15:14:39;9.90;99.90
13652;DHT22;6899;51.546;6.912;2023-02-23T15:17:12;9.70;99.90
13652;DHT22;6899;51.546;6.912;2023-02-23T15:19:40;9.50;99.90
13652;DHT22;6899;51.546;6.912;2023-02-23T15:22:20;9.30;99.90
13652;DHT22;6899;51.546;6.912;2023-02-23T15:24:49;9.20;99.90
13652;DHT22;6899;51.546;6.912;2023-02-23T15:27:18;9.00;99.90
13652;DHT22;6899;51.546;6.912;2023-02-23T15:29:47;9.00;99.90
13652;DHT22;6899;51.546;6.912;2023-02-23T15:32:19;9.00;99.90
13652;DHT22;6899;51.546;6.912;2023-02-23T15:34:46;8.80;99.90
13652;DHT22;6899;51.546;6.912;2023-02-23T15:37:26;8.70;99.90
13652;DHT22;6899;51.546;6.912;2023-02-23T15:39:57;8.60;99.90
13652;DHT22;6899;51.546;6.912;2023-02-23T15:42:30;8.50;99.90
13652;DHT22;6899;51.546;6.912;2023-02-23T15:44:59;8.50;99.90
13652;DHT22;6899;51.546;6.912;2023-02-23T15:47:31;8.40;99.90
13652;DHT22;6899;51.546;6.912;2023-02-23T15:50:13;8.40;99.90
13652;DHT22;6899;51.546;6.912;2023-02-23T15:52:46;8.30;99.90
13652;DHT22;6899;51.546;6.912;2023-02-23T15:55:23;8.30;99.90
13652;DHT22;6899;51.546;6.912;2023-02-23T15:57:56;8.20;99.90
13652;DHT22;6899;51.546;6.912;2023-02-23T16:00:29;8.20;99.90
13652;DHT22;6899;51.546;6.912;2023-02-23T16:02:59;8.10;99.90
13652;DHT22;6899;51.546;6.912;2023-02-23T16:05:29;8.10;99.90
13652;DHT22;6899;51.546;6.912;2023-02-23T16:08:14;8.00;99.90
13652;DHT22;6899;51.546;6.912;2023-02-23T16:10:48;7.90;99.90
13652;DHT22;6899;51.546;6.912;2023-02-23T16:13:20;7.80;99.90
13652;DHT22;6899;51.546;6.912;2023-02-23T16:15:48;7.70;99.90
13652;DHT22;6899;51.546;6.912;2023-02-23T16:18:18;7.60;99.90
13652;DHT22;6899;51.546;6.912;2023-02-23T16:20:48;7.60;99.90
13652;DHT22;6899;51.546;6.912;2023-02-23T16:23:25;7.50;99.90
13652;DHT22;6899;51.546;6.912;2023-02-23T16:25:55;7.50;99.90
13652;DHT22;6899;51.546;6.912;2023-02-23T16:28:27;7.40;99.90
13652;DHT22;6899;51.546;6.912;2023-02-23T16:30:58;7.50;99.90
13652;DHT22;6899;51.546;6.912;2023-02-23T16:33:26;7.50;99.90
13652;DHT22;6899;51.546;6.912;2023-02-23T16:36:10;7.40;99.90
13652;DHT22;6899;51.546;6.912;2023-02-23T16:38:44;7.40;99.90
13652;DHT22;6899;51.546;6.912;2023-02-23T16:41:15;7.40;99.90
13652;DHT22;6899;51.546;6.912;2023-02-23T16:43:44;7.40;99.90
13652;DHT22;6899;51.546;6.912;2023-02-23T16:46:13;7.40;99.90
13652;DHT22;6899;51.546;6.912;2023-02-23T16:48:40;7.40;99.90